sensor_id;sensor_type;location;lat;lon;timestamp;P1;durP1;ratioP1;P2;durP2;ratioP2
63296;SDS011;49419;51.716;-4.948;2022-07-19T00:02:21;2.50;;;2.40;;
63296;SDS011;49419;51.716;-4.948;2022-07-19T00:04:50;2.70;;;2.60;;
63296;SDS011;49419;51.716;-4.948;2022-07-19T00:07:21;2.72;;;2.63;;
63296;SDS011;49419;51.716;-4.948;2022-07-19T00:10:16;2.63;;;2.53;;
63296;SDS011;49419;51.716;-4.948;2022-07-19T00:12:49;2.60;;;2.50;;
63296;SDS011;49419;51.716;-4.948;2022-07-19T00:15:25;2.60;;;2.50;;
63296;SDS011;49419;51.716;-4.948;2022-07-19T00:18:12;2.50;;;2.40;;
63296;SDS011;49419;51.716;-4.948;2022-07-19T00:20:44;2.45;;;2.35;;
63296;SDS011;49419;51.716;-4.948;2022-07-19T00:23:15;2.60;;;2.50;;
63296;SDS011;49419;51.716;-4.948;2022-07-19T00:25:51;2.63;;;2.53;;
63296;SDS011;49419;51.716;-4.948;2022-07-19T00:28:31;2.38;;;2.28;;
63296;SDS011;49419;51.716;-4.948;2022-07-19T00:31:20;2.50;;;2.40;;
63296;SDS011;49419;51.716;-4.948;2022-07-19T00:34:01;2.50;;;2.40;;
63296;SDS011;49419;51.716;-4.948;2022-07-19T00:36:49;2.60;;;2.50;;
63296;SDS011;49419;51.716;-4.948;2022-07-19T00:39:17;2.60;;;2.50;;
63296;SDS011;49419;51.716;-4.948;2022-07-19T00:41:46;2.40;;;2.30;;
63296;SDS011;49419;51.716;-4.948;2022-07-19T00:44:25;2.60;;;2.50;;
63296;SDS011;49419;51.716;-4.948;2022-07-19T00:50:14;2.70;;;2.60;;
63296;SDS011;49419;51.716;-4.948;2022-07-19T00:53:07;2.60;;;2.50;;
63296;SDS011;49419;51.716;-4.948;2022-07-19T00:55:44;2.45;;;2.35;;
63296;SDS011;49419;51.716;-4.948;2022-07-19T00:58:13;2.40;;;2.30;;
63296;SDS011;49419;51.716;-4.948;2022-07-19T01:01:31;2.50;;;2.40;;
63296;SDS011;49419;51.716;-4.948;2022-07-19T01:04:36;2.50;;;2.40;;
63296;SDS011;49419;51.716;-4.948;2022-07-19T01:10:02;2.33;;;2.22;;
63296;SDS011;49419;51.716;-4.948;2022-07-19T01:12:39;2.58;;;2.40;;
63296;SDS011;49419;51.716;-4.948;2022-07-19T01:15:16;2.40;;;2.30;;
63296;SDS011;49419;51.716;-4.948;2022-07-19T01:17:49;2.50;;;2.40;;
63296;SDS011;49419;51.716;-4.948;2022-07-19T01:20:35;2.38;;;2.28;;
63296;SDS011;49419;51.716;-4.948;2022-07-19T01:23:19;2.30;;;2.20;;
63296;SDS011;49419;51.716;-4.948;2022-07-19T01:26:11;2.53;;;2.42;;
63296;SDS011;49419;51.716;-4.948;2022-07-19T01:36:51;2.40;;;2.30;;
63296;SDS011;49419;51.716;-4.948;2022-07-19T01:39:31;2.13;;;2.03;;
63296;SDS011;49419;51.716;-4.948;2022-07-19T01:42:01;2.10;;;2.00;;
63296;SDS011;49419;51.716;-4.948;2022-07-19T01:44:28;2.20;;;2.10;;
63296;SDS011;49419;51.716;-4.948;2022-07-19T01:52:15;2.45;;;2.35;;
63296;SDS011;49419;51.716;-4.948;2022-07-19T02:03:15;2.35;;;2.25;;
63296;SDS011;49419;51.716;-4.948;2022-07-19T02:05:50;2.30;;;2.20;;
63296;SDS011;49419;51.716;-4.948;2022-07-19T02:08:42;2.30;;;2.20;;
63296;SDS011;49419;51.716;-4.948;2022-07-19T02:11:29;2.20;;;2.10;;
63296;SDS011;49419;51.716;-4.948;2022-07-19T02:14:03;2.30;;;2.20;;
63296;SDS011;49419;51.716;-4.948;2022-07-19T02:16:43;2.20;;;2.10;;
63296;SDS011;49419;51.716;-4.948;2022-07-19T02:19:12;2.30;;;2.20;;
63296;SDS011;49419;51.716;-4.948;2022-07-19T02:21:51;2.20;;;2.10;;
63296;SDS011;49419;51.716;-4.948;2022-07-19T02:24:20;2.30;;;2.20;;
63296;SDS011;49419;51.716;-4.948;2022-07-19T02:27:10;2.20;;;2.10;;
63296;SDS011;49419;51.716;-4.948;2022-07-19T02:32:38;2.10;;;2.00;;
63296;SDS011;49419;51.716;-4.948;2022-07-19T02:35:13;2.20;;;2.10;;
63296;SDS011;49419;51.716;-4.948;2022-07-19T02:38:02;2.50;;;2.30;;
63296;SDS011;49419;51.716;-4.948;2022-07-19T02:40:40;2.10;;;2.00;;
63296;SDS011;49419;51.716;-4.948;2022-07-19T02:43:07;2.30;;;2.20;;
63296;SDS011;49419;51.716;-4.948;2022-07-19T02:48:15;2.28;;;2.17;;
63296;SDS011;49419;51.716;-4.948;2022-07-19T02:50:55;2.28;;;2.17;;
63296;SDS011;49419;51.716;-4.948;2022-07-19T02:53:42;2.20;;;2.10;;
63296;SDS011;49419;51.716;-4.948;2022-07-19T02:56:14;2.13;;;2.03;;
63296;SDS011;49419;51.716;-4.948;2022-07-19T02:58:47;2.22;;;2.03;;
63296;SDS011;49419;51.716;-4.948;2022-07-19T03:01:21;2.20;;;2.10;;
63296;SDS011;49419;51.716;-4.948;2022-07-19T03:04:06;2.20;;;2.10;;
63296;SDS011;49419;51.716;-4.948;2022-07-19T03:06:58;2.07;;;1.97;;
63296;SDS011;49419;51.716;-4.948;2022-07-19T03:09:31;2.15;;;2.05;;
63296;SDS011;49419;51.716;-4.948;2022-07-19T03:12:28;2.10;;;2.00;;
63296;SDS011;49419;51.716;-4.948;2022-07-19T03:15:04;2.15;;;2.05;;
63296;SDS011;49419;51.716;-4.948;2022-07-19T03:18:02;2.10;;;2.00;;
63296;SDS011;49419;51.716;-4.948;2022-07-19T03:20:31;2.10;;;2.00;;
63296;SDS011;49419;51.716;-4.948;2022-07-19T03:23:06;2.20;;;2.10;;
63296;SDS011;49419;51.716;-4.948;2022-07-19T03:25:42;2.30;;;2.20;;
63296;SDS011;49419;51.716;-4.948;2022-07-19T03:28:30;2.10;;;2.00;;
63296;SDS011;49419;51.716;-4.948;2022-07-19T03:31:24;2.20;;;2.10;;
63296;SDS011;49419;51.716;-4.948;2022-07-19T03:33:56;2.20;;;2.10;;
63296;SDS011;49419;51.716;-4.948;2022-07-19T03:36:21;2.20;;;2.10;;
63296;SDS011;49419;51.716;-4.948;2022-07-19T03:41:49;2.30;;;2.20;;
63296;SDS011;49419;51.716;-4.948;2022-07-19T03:44:41;2.85;;;2.10;;
63296;SDS011;49419;51.716;-4.948;2022-07-19T03:49:42;2.30;;;2.20;;
63296;SDS011;49419;51.716;-4.948;2022-07-19T03:52:11;2.38;;;2.28;;
63296;SDS011;49419;51.716;-4.948;2022-07-19T03:54:45;2.30;;;2.20;;
63296;SDS011;49419;51.716;-4.948;2022-07-19T03:57:15;2.67;;;2.47;;
63296;SDS011;49419;51.716;-4.948;2022-07-19T03:59:41;2.40;;;2.20;;
63296;SDS011;49419;51.716;-4.948;2022-07-19T04:02:09;2.60;;;2.40;;
63296;SDS011;49419;51.716;-4.948;2022-07-19T04:07:24;2.70;;;2.50;;
63296;SDS011;49419;51.716;-4.948;2022-07-19T04:10:12;2.30;;;2.20;;
63296;SDS011;49419;51.716;-4.948;2022-07-19T04:12:46;2.40;;;2.30;;
63296;SDS011;49419;51.716;-4.948;2022-07-19T04:15:14;2.40;;;2.30;;
63296;SDS011;49419;51.716;-4.948;2022-07-19T04:17:49;2.67;;;2.47;;
63296;SDS011;49419;51.716;-4.948;2022-07-19T04:20:15;2.60;;;2.40;;
63296;SDS011;49419;51.716;-4.948;2022-07-19T04:25:58;2.33;;;2.22;;
63296;SDS011;49419;51.716;-4.948;2022-07-19T04:30:59;2.60;;;2.40;;
63296;SDS011;49419;51.716;-4.948;2022-07-19T04:33:54;2.63;;;2.53;;
63296;SDS011;49419;51.716;-4.948;2022-07-19T04:36:35;2.70;;;2.50;;
63296;SDS011;49419;51.716;-4.948;2022-07-19T04:39:03;2.70;;;2.60;;
63296;SDS011;49419;51.716;-4.948;2022-07-19T04:44:17;2.47;;;2.38;;
63296;SDS011;49419;51.716;-4.948;2022-07-19T04:57:27;2.83;;;2.72;;
63296;SDS011;49419;51.716;-4.948;2022-07-19T05:00:00;2.97;;;2.78;;
63296;SDS011;49419;51.716;-4.948;2022-07-19T05:02:37;2.88;;;2.67;;
63296;SDS011;49419;51.716;-4.948;2022-07-19T05:05:20;3.08;;;2.88;;
63296;SDS011;49419;51.716;-4.948;2022-07-19T05:13:55;2.90;;;2.70;;
63296;SDS011;49419;51.716;-4.948;2022-07-19T05:16:46;3.00;;;2.80;;
63296;SDS011;49419;51.716;-4.948;2022-07-19T05:22:11;2.70;;;2.60;;
63296;SDS011;49419;51.716;-4.948;2022-07-19T05:25:23;2.78;;;2.58;;
63296;SDS011;49419;51.716;-4.948;2022-07-19T05:28:00;3.13;;;2.92;;
63296;SDS011;49419;51.716;-4.948;2022-07-19T05:30:34;2.70;;;2.60;;
63296;SDS011;49419;51.716;-4.948;2022-07-19T05:33:29;2.78;;;2.58;;
63296;SDS011;49419;51.716;-4.948;2022-07-19T05:36:18;2.90;;;2.70;;
63296;SDS011;49419;51.716;-4.948;2022-07-19T05:39:16;3.17;;;2.97;;
63296;SDS011;49419;51.716;-4.948;2022-07-19T05:41:46;2.70;;;2.60;;
63296;SDS011;49419;51.716;-4.948;2022-07-19T05:44:24;3.00;;;2.80;;
63296;SDS011;49419;51.716;-4.948;2022-07-19T05:49:51;3.00;;;2.80;;
63296;SDS011;49419;51.716;-4.948;2022-07-19T05:52:30;3.00;;;2.80;;
63296;SDS011;49419;51.716;-4.948;2022-07-19T05:55:12;3.05;;;2.90;;
63296;SDS011;49419;51.716;-4.948;2022-07-19T05:57:47;2.90;;;2.70;;
63296;SDS011;49419;51.716;-4.948;2022-07-19T06:03:49;3.20;;;3.00;;
63296;SDS011;49419;51.716;-4.948;2022-07-19T06:09:31;3.40;;;3.10;;
63296;SDS011;49419;51.716;-4.948;2022-07-19T06:12:09;3.20;;;3.00;;
63296;SDS011;49419;51.716;-4.948;2022-07-19T06:14:36;3.20;;;3.00;;
63296;SDS011;49419;51.716;-4.948;2022-07-19T06:17:17;3.22;;;3.03;;
63296;SDS011;49419;51.716;-4.948;2022-07-19T06:19:55;3.30;;;3.10;;
63296;SDS011;49419;51.716;-4.948;2022-07-19T06:22:34;3.25;;;3.05;;
63296;SDS011;49419;51.716;-4.948;2022-07-19T06:25:02;3.20;;;3.00;;
63296;SDS011;49419;51.716;-4.948;2022-07-19T06:28:03;3.28;;;3.08;;
63296;SDS011;49419;51.716;-4.948;2022-07-19T06:30:30;3.30;;;3.10;;
63296;SDS011;49419;51.716;-4.948;2022-07-19T06:33:10;3.30;;;3.10;;
63296;SDS011;49419;51.716;-4.948;2022-07-19T06:36:29;3.20;;;3.00;;
63296;SDS011;49419;51.716;-4.948;2022-07-19T06:39:26;3.30;;;3.10;;
63296;SDS011;49419;51.716;-4.948;2022-07-19T06:42:03;2.88;;;2.78;;
63296;SDS011;49419;51.716;-4.948;2022-07-19T06:47:37;3.10;;;2.90;;
63296;SDS011;49419;51.716;-4.948;2022-07-19T06:50:44;3.00;;;2.90;;
63296;SDS011;49419;51.716;-4.948;2022-07-19T06:53:36;2.88;;;2.78;;
63296;SDS011;49419;51.716;-4.948;2022-07-19T06:56:30;2.90;;;2.70;;
63296;SDS011;49419;51.716;-4.948;2022-07-19T06:59:15;2.70;;;2.60;;
63296;SDS011;49419;51.716;-4.948;2022-07-19T07:01:55;2.90;;;2.70;;
63296;SDS011;49419;51.716;-4.948;2022-07-19T07:04:38;2.80;;;2.70;;
63296;SDS011;49419;51.716;-4.948;2022-07-19T07:07:31;3.00;;;2.80;;
63296;SDS011;49419;51.716;-4.948;2022-07-19T07:13:10;3.05;;;2.95;;
63296;SDS011;49419;51.716;-4.948;2022-07-19T07:15:49;3.10;;;2.80;;
63296;SDS011;49419;51.716;-4.948;2022-07-19T07:18:27;3.00;;;2.90;;
63296;SDS011;49419;51.716;-4.948;2022-07-19T07:21:36;2.90;;;2.80;;
63296;SDS011;49419;51.716;-4.948;2022-07-19T07:24:32;2.80;;;2.70;;
63296;SDS011;49419;51.716;-4.948;2022-07-19T07:27:02;3.20;;;3.00;;
63296;SDS011;49419;51.716;-4.948;2022-07-19T07:30:00;2.90;;;2.80;;
63296;SDS011;49419;51.716;-4.948;2022-07-19T07:32:35;3.10;;;2.90;;
63296;SDS011;49419;51.716;-4.948;2022-07-19T07:35:06;2.83;;;2.72;;
63296;SDS011;49419;51.716;-4.948;2022-07-19T07:37:36;3.20;;;3.00;;
63296;SDS011;49419;51.716;-4.948;2022-07-19T07:40:14;3.03;;;2.85;;
63296;SDS011;49419;51.716;-4.948;2022-07-19T07:42:45;3.00;;;2.90;;
63296;SDS011;49419;51.716;-4.948;2022-07-19T07:45:31;3.15;;;2.95;;
63296;SDS011;49419;51.716;-4.948;2022-07-19T07:50:56;3.50;;;3.20;;
63296;SDS011;49419;51.716;-4.948;2022-07-19T07:53:22;3.30;;;3.10;;
63296;SDS011;49419;51.716;-4.948;2022-07-19T07:55:52;4.00;;;3.70;;
63296;SDS011;49419;51.716;-4.948;2022-07-19T07:58:21;5.10;;;4.70;;
63296;SDS011;49419;51.716;-4.948;2022-07-19T08:00:46;5.53;;;5.13;;
63296;SDS011;49419;51.716;-4.948;2022-07-19T08:03:14;6.10;;;5.70;;
63296;SDS011;49419;51.716;-4.948;2022-07-19T08:05:41;6.50;;;6.10;;
63296;SDS011;49419;51.716;-4.948;2022-07-19T08:08:21;7.00;;;6.50;;
63296;SDS011;49419;51.716;-4.948;2022-07-19T08:10:54;7.88;;;7.28;;
63296;SDS011;49419;51.716;-4.948;2022-07-19T08:13:21;8.05;;;7.45;;
63296;SDS011;49419;51.716;-4.948;2022-07-19T08:15:50;7.97;;;7.38;;
63296;SDS011;49419;51.716;-4.948;2022-07-19T08:18:16;8.02;;;7.53;;
63296;SDS011;49419;51.716;-4.948;2022-07-19T08:20:42;8.73;;;7.93;;
63296;SDS011;49419;51.716;-4.948;2022-07-19T08:23:08;8.50;;;7.53;;
63296;SDS011;49419;51.716;-4.948;2022-07-19T08:25:35;8.50;;;7.80;;
63296;SDS011;49419;51.716;-4.948;2022-07-19T08:28:02;9.23;;;8.43;;
63296;SDS011;49419;51.716;-4.948;2022-07-19T08:30:33;9.20;;;8.50;;
63296;SDS011;49419;51.716;-4.948;2022-07-19T08:33:05;9.30;;;8.63;;
63296;SDS011;49419;51.716;-4.948;2022-07-19T08:35:35;8.95;;;8.10;;
63296;SDS011;49419;51.716;-4.948;2022-07-19T08:38:04;8.60;;;7.85;;
63296;SDS011;49419;51.716;-4.948;2022-07-19T08:40:32;7.53;;;7.03;;
63296;SDS011;49419;51.716;-4.948;2022-07-19T08:42:58;7.80;;;7.30;;
63296;SDS011;49419;51.716;-4.948;2022-07-19T08:45:26;7.70;;;7.10;;
63296;SDS011;49419;51.716;-4.948;2022-07-19T08:47:55;7.55;;;7.05;;
63296;SDS011;49419;51.716;-4.948;2022-07-19T08:50:22;8.50;;;7.70;;
63296;SDS011;49419;51.716;-4.948;2022-07-19T08:52:54;8.25;;;7.65;;
63296;SDS011;49419;51.716;-4.948;2022-07-19T08:55:26;8.30;;;7.63;;
63296;SDS011;49419;51.716;-4.948;2022-07-19T08:57:55;8.00;;;7.40;;
63296;SDS011;49419;51.716;-4.948;2022-07-19T09:00:24;8.35;;;7.75;;
63296;SDS011;49419;51.716;-4.948;2022-07-19T09:02:56;9.57;;;8.77;;
63296;SDS011;49419;51.716;-4.948;2022-07-19T09:05:30;9.65;;;8.88;;
63296;SDS011;49419;51.716;-4.948;2022-07-19T09:08:16;9.07;;;8.38;;
63296;SDS011;49419;51.716;-4.948;2022-07-19T09:10:46;10.20;;;9.23;;
63296;SDS011;49419;51.716;-4.948;2022-07-19T09:13:35;9.77;;;8.82;;
63296;SDS011;49419;51.716;-4.948;2022-07-19T09:16:16;10.02;;;9.13;;
63296;SDS011;49419;51.716;-4.948;2022-07-19T09:18:43;9.43;;;8.52;;
63296;SDS011;49419;51.716;-4.948;2022-07-19T09:21:11;9.73;;;8.05;;
63296;SDS011;49419;51.716;-4.948;2022-07-19T09:23:41;9.60;;;8.65;;
63296;SDS011;49419;51.716;-4.948;2022-07-19T09:26:09;8.70;;;7.90;;
63296;SDS011;49419;51.716;-4.948;2022-07-19T09:31:58;9.25;;;6.97;;
63296;SDS011;49419;51.716;-4.948;2022-07-19T09:34:49;8.88;;;7.90;;
63296;SDS011;49419;51.716;-4.948;2022-07-19T09:37:27;10.60;;;9.60;;
63296;SDS011;49419;51.716;-4.948;2022-07-19T09:39:56;11.88;;;10.88;;
63296;SDS011;49419;51.716;-4.948;2022-07-19T09:45:10;12.35;;;11.27;;
63296;SDS011;49419;51.716;-4.948;2022-07-19T09:47:50;12.60;;;11.50;;
63296;SDS011;49419;51.716;-4.948;2022-07-19T09:50:20;11.35;;;10.45;;
63296;SDS011;49419;51.716;-4.948;2022-07-19T09:52:47;11.45;;;10.50;;
63296;SDS011;49419;51.716;-4.948;2022-07-19T09:55:19;11.35;;;10.35;;
63296;SDS011;49419;51.716;-4.948;2022-07-19T09:57:48;10.88;;;10.07;;
63296;SDS011;49419;51.716;-4.948;2022-07-19T10:00:16;10.65;;;9.70;;
63296;SDS011;49419;51.716;-4.948;2022-07-19T10:05:44;10.63;;;9.73;;
63296;SDS011;49419;51.716;-4.948;2022-07-19T10:08:18;10.20;;;9.50;;
63296;SDS011;49419;51.716;-4.948;2022-07-19T10:11:05;10.00;;;9.30;;
63296;SDS011;49419;51.716;-4.948;2022-07-19T10:13:31;7.55;;;6.95;;
63296;SDS011;49419;51.716;-4.948;2022-07-19T10:18:53;6.45;;;5.95;;
63296;SDS011;49419;51.716;-4.948;2022-07-19T10:21:33;6.65;;;6.05;;
63296;SDS011;49419;51.716;-4.948;2022-07-19T10:24:09;5.72;;;5.20;;
63296;SDS011;49419;51.716;-4.948;2022-07-19T10:26:39;5.90;;;5.50;;
63296;SDS011;49419;51.716;-4.948;2022-07-19T10:29:17;5.72;;;5.22;;
63296;SDS011;49419;51.716;-4.948;2022-07-19T10:32:01;5.45;;;5.00;;
63296;SDS011;49419;51.716;-4.948;2022-07-19T10:34:35;5.60;;;5.20;;
63296;SDS011;49419;51.716;-4.948;2022-07-19T10:37:08;6.63;;;6.13;;
63296;SDS011;49419;51.716;-4.948;2022-07-19T10:48:46;8.80;;;8.10;;
63296;SDS011;49419;51.716;-4.948;2022-07-19T10:51:41;9.00;;;8.30;;
63296;SDS011;49419;51.716;-4.948;2022-07-19T10:54:20;7.60;;;7.00;;
63296;SDS011;49419;51.716;-4.948;2022-07-19T11:00:46;6.05;;;5.45;;
63296;SDS011;49419;51.716;-4.948;2022-07-19T11:03:27;6.30;;;5.80;;
63296;SDS011;49419;51.716;-4.948;2022-07-19T11:05:57;5.75;;;5.35;;
63296;SDS011;49419;51.716;-4.948;2022-07-19T11:08:36;5.70;;;5.25;;
63296;SDS011;49419;51.716;-4.948;2022-07-19T11:13:52;5.85;;;5.45;;
63296;SDS011;49419;51.716;-4.948;2022-07-19T11:16:19;5.90;;;5.40;;
63296;SDS011;49419;51.716;-4.948;2022-07-19T11:19:01;5.80;;;5.40;;
63296;SDS011;49419;51.716;-4.948;2022-07-19T11:21:35;5.60;;;5.20;;
63296;SDS011;49419;51.716;-4.948;2022-07-19T11:24:03;6.03;;;5.63;;
63296;SDS011;49419;51.716;-4.948;2022-07-19T11:26:37;5.85;;;5.45;;
63296;SDS011;49419;51.716;-4.948;2022-07-19T11:29:07;5.93;;;5.53;;
63296;SDS011;49419;51.716;-4.948;2022-07-19T11:31:36;5.93;;;5.53;;
63296;SDS011;49419;51.716;-4.948;2022-07-19T11:34:40;6.13;;;5.72;;
63296;SDS011;49419;51.716;-4.948;2022-07-19T11:37:20;5.30;;;5.00;;
63296;SDS011;49419;51.716;-4.948;2022-07-19T11:39:59;5.82;;;5.43;;
63296;SDS011;49419;51.716;-4.948;2022-07-19T11:45:17;5.32;;;4.88;;
63296;SDS011;49419;51.716;-4.948;2022-07-19T11:47:51;5.57;;;5.18;;
63296;SDS011;49419;51.716;-4.948;2022-07-19T11:52:59;5.18;;;4.88;;
63296;SDS011;49419;51.716;-4.948;2022-07-19T11:55:38;5.47;;;5.07;;
63296;SDS011;49419;51.716;-4.948;2022-07-19T11:58:24;5.40;;;5.00;;
63296;SDS011;49419;51.716;-4.948;2022-07-19T12:00:52;5.23;;;4.83;;
63296;SDS011;49419;51.716;-4.948;2022-07-19T12:03:34;4.82;;;4.53;;
63296;SDS011;49419;51.716;-4.948;2022-07-19T12:06:01;4.72;;;4.43;;
63296;SDS011;49419;51.716;-4.948;2022-07-19T12:13:53;4.82;;;4.53;;
63296;SDS011;49419;51.716;-4.948;2022-07-19T12:16:37;4.40;;;4.10;;
63296;SDS011;49419;51.716;-4.948;2022-07-19T12:19:10;4.90;;;4.60;;
63296;SDS011;49419;51.716;-4.948;2022-07-19T12:21:39;4.80;;;4.50;;
63296;SDS011;49419;51.716;-4.948;2022-07-19T12:27:44;4.75;;;4.45;;
63296;SDS011;49419;51.716;-4.948;2022-07-19T12:30:40;4.50;;;4.13;;
63296;SDS011;49419;51.716;-4.948;2022-07-19T12:36:40;4.70;;;4.40;;
63296;SDS011;49419;51.716;-4.948;2022-07-19T12:39:33;4.45;;;4.15;;
63296;SDS011;49419;51.716;-4.948;2022-07-19T12:48:43;4.30;;;4.00;;
63296;SDS011;49419;51.716;-4.948;2022-07-19T12:57:21;8.68;;;8.05;;
63296;SDS011;49419;51.716;-4.948;2022-07-19T12:59:53;7.65;;;7.15;;
63296;SDS011;49419;51.716;-4.948;2022-07-19T13:05:18;6.13;;;5.72;;
63296;SDS011;49419;51.716;-4.948;2022-07-19T13:08:25;5.75;;;5.35;;
63296;SDS011;49419;51.716;-4.948;2022-07-19T13:11:03;5.22;;;4.82;;
63296;SDS011;49419;51.716;-4.948;2022-07-19T13:13:40;5.28;;;4.90;;
63296;SDS011;49419;51.716;-4.948;2022-07-19T13:16:19;5.20;;;4.80;;
63296;SDS011;49419;51.716;-4.948;2022-07-19T13:19:10;5.25;;;4.95;;
63296;SDS011;49419;51.716;-4.948;2022-07-19T13:22:05;5.20;;;4.80;;
63296;SDS011;49419;51.716;-4.948;2022-07-19T13:24:52;5.00;;;4.70;;
63296;SDS011;49419;51.716;-4.948;2022-07-19T13:28:00;4.57;;;4.18;;
63296;SDS011;49419;51.716;-4.948;2022-07-19T13:31:16;5.30;;;4.90;;
63296;SDS011;49419;51.716;-4.948;2022-07-19T13:33:55;5.00;;;4.60;;
63296;SDS011;49419;51.716;-4.948;2022-07-19T13:36:51;4.28;;;3.88;;
63296;SDS011;49419;51.716;-4.948;2022-07-19T13:40:01;4.80;;;4.50;;
63296;SDS011;49419;51.716;-4.948;2022-07-19T13:42:36;5.05;;;4.65;;
63296;SDS011;49419;51.716;-4.948;2022-07-19T13:45:18;4.75;;;4.40;;
63296;SDS011;49419;51.716;-4.948;2022-07-19T15:12:10;3.08;;;2.88;;
63296;SDS011;49419;51.716;-4.948;2022-07-19T15:44:17;5.18;;;4.72;;
63296;SDS011;49419;51.716;-4.948;2022-07-19T15:47:27;5.72;;;5.22;;
63296;SDS011;49419;51.716;-4.948;2022-07-19T15:50:19;5.80;;;5.30;;
63296;SDS011;49419;51.716;-4.948;2022-07-19T15:52:52;6.25;;;5.65;;
63296;SDS011;49419;51.716;-4.948;2022-07-19T15:55:34;6.80;;;6.20;;
63296;SDS011;49419;51.716;-4.948;2022-07-19T15:58:45;7.85;;;6.15;;
63296;SDS011;49419;51.716;-4.948;2022-07-19T16:01:17;6.85;;;6.35;;
63296;SDS011;49419;51.716;-4.948;2022-07-19T16:06:45;6.22;;;5.72;;
63296;SDS011;49419;51.716;-4.948;2022-07-19T16:09:55;6.93;;;6.32;;
63296;SDS011;49419;51.716;-4.948;2022-07-19T16:12:28;7.10;;;6.50;;
63296;SDS011;49419;51.716;-4.948;2022-07-19T16:14:54;7.18;;;6.57;;
63296;SDS011;49419;51.716;-4.948;2022-07-19T16:20:16;8.30;;;7.50;;
63296;SDS011;49419;51.716;-4.948;2022-07-19T16:25:25;8.30;;;7.50;;
63296;SDS011;49419;51.716;-4.948;2022-07-19T16:28:21;8.15;;;7.43;;
63296;SDS011;49419;51.716;-4.948;2022-07-19T16:31:50;7.28;;;6.68;;
63296;SDS011;49419;51.716;-4.948;2022-07-19T16:34:35;7.53;;;6.68;;
63296;SDS011;49419;51.716;-4.948;2022-07-19T16:37:19;6.60;;;6.00;;
63296;SDS011;49419;51.716;-4.948;2022-07-19T16:40:39;6.47;;;5.90;;
63296;SDS011;49419;51.716;-4.948;2022-07-19T16:59:06;6.22;;;5.72;;
63296;SDS011;49419;51.716;-4.948;2022-07-19T17:04:48;6.85;;;5.75;;
63296;SDS011;49419;51.716;-4.948;2022-07-19T17:07:45;6.35;;;5.85;;
63296;SDS011;49419;51.716;-4.948;2022-07-19T17:16:26;5.65;;;5.25;;
63296;SDS011;49419;51.716;-4.948;2022-07-19T17:18:58;5.85;;;5.35;;
63296;SDS011;49419;51.716;-4.948;2022-07-19T17:43:40;3.28;;;2.97;;
63296;SDS011;49419;51.716;-4.948;2022-07-19T17:46:52;3.33;;;3.03;;
63296;SDS011;49419;51.716;-4.948;2022-07-19T17:50:00;3.60;;;3.30;;
63296;SDS011;49419;51.716;-4.948;2022-07-19T17:53:03;3.20;;;2.95;;
63296;SDS011;49419;51.716;-4.948;2022-07-19T17:55:47;3.60;;;3.20;;
63296;SDS011;49419;51.716;-4.948;2022-07-19T17:58:19;3.22;;;3.00;;
63296;SDS011;49419;51.716;-4.948;2022-07-19T18:01:16;3.88;;;2.95;;
63296;SDS011;49419;51.716;-4.948;2022-07-19T18:04:14;5.30;;;4.90;;
63296;SDS011;49419;51.716;-4.948;2022-07-19T18:10:02;4.68;;;4.20;;
63296;SDS011;49419;51.716;-4.948;2022-07-19T18:22:32;5.10;;;4.70;;
63296;SDS011;49419;51.716;-4.948;2022-07-19T18:31:46;5.30;;;4.90;;
63296;SDS011;49419;51.716;-4.948;2022-07-19T18:34:28;5.13;;;4.80;;
63296;SDS011;49419;51.716;-4.948;2022-07-19T18:37:40;5.05;;;4.75;;
63296;SDS011;49419;51.716;-4.948;2022-07-19T18:40:29;5.40;;;5.00;;
63296;SDS011;49419;51.716;-4.948;2022-07-19T18:45:33;6.20;;;5.70;;
63296;SDS011;49419;51.716;-4.948;2022-07-19T18:48:02;6.75;;;6.32;;
63296;SDS011;49419;51.716;-4.948;2022-07-19T18:50:27;7.03;;;6.53;;
63296;SDS011;49419;51.716;-4.948;2022-07-19T18:52:53;6.45;;;6.05;;
63296;SDS011;49419;51.716;-4.948;2022-07-19T18:55:33;7.00;;;6.50;;
63296;SDS011;49419;51.716;-4.948;2022-07-19T18:58:23;6.35;;;5.90;;
63296;SDS011;49419;51.716;-4.948;2022-07-19T19:00:53;5.80;;;5.40;;
63296;SDS011;49419;51.716;-4.948;2022-07-19T19:03:28;5.30;;;5.00;;
63296;SDS011;49419;51.716;-4.948;2022-07-19T19:05:55;5.00;;;4.60;;
63296;SDS011;49419;51.716;-4.948;2022-07-19T19:08:23;4.57;;;4.18;;
63296;SDS011;49419;51.716;-4.948;2022-07-19T19:10:55;4.40;;;4.00;;
63296;SDS011;49419;51.716;-4.948;2022-07-19T19:13:20;4.32;;;3.92;;
63296;SDS011;49419;51.716;-4.948;2022-07-19T19:15:50;3.88;;;3.58;;
63296;SDS011;49419;51.716;-4.948;2022-07-19T19:24:24;3.60;;;3.30;;
63296;SDS011;49419;51.716;-4.948;2022-07-19T19:27:01;3.75;;;3.45;;
63296;SDS011;49419;51.716;-4.948;2022-07-19T19:29:32;4.00;;;3.70;;
63296;SDS011;49419;51.716;-4.948;2022-07-19T19:44:25;4.65;;;4.35;;
63296;SDS011;49419;51.716;-4.948;2022-07-19T19:46:51;4.55;;;4.22;;
63296;SDS011;49419;51.716;-4.948;2022-07-19T19:49:33;4.95;;;4.55;;
63296;SDS011;49419;51.716;-4.948;2022-07-19T19:52:10;4.70;;;4.40;;
63296;SDS011;49419;51.716;-4.948;2022-07-19T19:57:15;4.68;;;4.28;;
63296;SDS011;49419;51.716;-4.948;2022-07-19T20:02:48;4.70;;;4.30;;
63296;SDS011;49419;51.716;-4.948;2022-07-19T20:05:36;4.97;;;4.57;;
63296;SDS011;49419;51.716;-4.948;2022-07-19T20:08:41;4.97;;;4.68;;
63296;SDS011;49419;51.716;-4.948;2022-07-19T20:11:10;5.10;;;4.80;;
63296;SDS011;49419;51.716;-4.948;2022-07-19T20:16:49;5.20;;;4.80;;
63296;SDS011;49419;51.716;-4.948;2022-07-19T20:19:19;5.38;;;4.88;;
63296;SDS011;49419;51.716;-4.948;2022-07-19T20:21:45;5.22;;;4.88;;
63296;SDS011;49419;51.716;-4.948;2022-07-19T20:24:11;5.45;;;5.05;;
63296;SDS011;49419;51.716;-4.948;2022-07-19T20:26:40;5.75;;;5.30;;
63296;SDS011;49419;51.716;-4.948;2022-07-19T20:31:43;5.30;;;4.90;;
63296;SDS011;49419;51.716;-4.948;2022-07-19T20:34:37;5.30;;;4.90;;
63296;SDS011;49419;51.716;-4.948;2022-07-19T20:37:03;5.43;;;5.10;;
63296;SDS011;49419;51.716;-4.948;2022-07-19T20:39:54;5.32;;;5.00;;
63296;SDS011;49419;51.716;-4.948;2022-07-19T20:48:58;6.10;;;5.68;;
63296;SDS011;49419;51.716;-4.948;2022-07-19T20:51:31;5.28;;;4.80;;
63296;SDS011;49419;51.716;-4.948;2022-07-19T20:54:57;5.15;;;4.75;;
63296;SDS011;49419;51.716;-4.948;2022-07-19T21:33:54;4.88;;;4.57;;
63296;SDS011;49419;51.716;-4.948;2022-07-19T21:36:34;4.90;;;4.60;;
63296;SDS011;49419;51.716;-4.948;2022-07-19T21:39:04;4.78;;;4.50;;
63296;SDS011;49419;51.716;-4.948;2022-07-19T21:41:40;4.80;;;4.50;;
63296;SDS011;49419;51.716;-4.948;2022-07-19T21:44:19;5.00;;;4.70;;
63296;SDS011;49419;51.716;-4.948;2022-07-19T21:46:50;4.75;;;4.50;;
63296;SDS011;49419;51.716;-4.948;2022-07-19T21:49:16;4.85;;;4.55;;
63296;SDS011;49419;51.716;-4.948;2022-07-19T21:51:50;4.97;;;4.68;;
63296;SDS011;49419;51.716;-4.948;2022-07-19T21:54:17;5.30;;;5.00;;
63296;SDS011;49419;51.716;-4.948;2022-07-19T21:56:42;4.78;;;4.47;;
63296;SDS011;49419;51.716;-4.948;2022-07-19T21:59:12;4.90;;;4.60;;
63296;SDS011;49419;51.716;-4.948;2022-07-19T22:01:41;5.13;;;4.82;;
63296;SDS011;49419;51.716;-4.948;2022-07-19T22:04:10;5.20;;;4.90;;
63296;SDS011;49419;51.716;-4.948;2022-07-19T22:06:37;5.35;;;5.00;;
63296;SDS011;49419;51.716;-4.948;2022-07-19T22:09:05;5.28;;;4.90;;
63296;SDS011;49419;51.716;-4.948;2022-07-19T22:12:20;5.22;;;4.90;;
63296;SDS011;49419;51.716;-4.948;2022-07-19T22:14:54;5.45;;;5.10;;
63296;SDS011;49419;51.716;-4.948;2022-07-19T22:17:22;5.40;;;5.10;;
63296;SDS011;49419;51.716;-4.948;2022-07-19T22:19:51;5.60;;;5.10;;
63296;SDS011;49419;51.716;-4.948;2022-07-19T22:22:21;5.63;;;5.22;;
63296;SDS011;49419;51.716;-4.948;2022-07-19T22:25:05;5.50;;;5.10;;
63296;SDS011;49419;51.716;-4.948;2022-07-19T22:27:56;5.40;;;5.10;;
63296;SDS011;49419;51.716;-4.948;2022-07-19T22:30:27;5.35;;;5.05;;
63296;SDS011;49419;51.716;-4.948;2022-07-19T22:33:21;5.22;;;4.93;;